Time;durP1;ratioP1;P1;durP2;ratioP2;P2;SDS_P1;SDS_P2;PMS_P1;PMS_P2;Temp;Humidity;BMP_temperature;BMP_pressure;BME280_temperature;BME280_humidity;BME280_pressure;Samples;Min_cycle;Max_cycle;Signal;HPM_P1;HPM_P2
2022/04/25 00:00:50;;;;;;;13.70;7.00;;;7.20;99.90;;;;;;5096969;28;20558;-60
2022/04/25 00:03:15;;;;;;;15.15;6.60;;;7.20;99.90;;;;;;5079716;28;20127;-60
2022/04/25 00:05:41;;;;;;;16.00;7.68;;;7.30;99.90;;;;;;5098355;28;20036;-60
2022/04/25 00:08:06;;;;;;;16.42;7.40;;;7.30;99.90;;;;;;5097565;28;20036;-59
2022/04/25 00:10:33;;;;;;;10.50;6.95;;;;;;;;;;5097166;28;20048;-60
2022/04/25 00:12:59;;;;;;;15.05;7.38;;;7.30;99.90;;;;;;5096230;28;20075;-60
2022/04/25 00:15:27;;;;;;;14.73;6.88;;;7.50;99.90;;;;;;5097382;28;20051;-60
2022/04/25 00:17:52;;;;;;;11.75;7.72;;;7.50;99.90;;;;;;5097927;28;20082;-60
2022/04/25 00:20:18;;;;;;;13.07;8.00;;;7.40;99.90;;;;;;5097594;28;20036;-60
2022/04/25 00:22:46;;;;;;;19.10;8.93;;;;;;;;;;5096358;28;20043;-59
2022/04/25 00:25:12;;;;;;;16.58;7.88;;;7.70;99.90;;;;;;5096733;28;20165;-60
2022/04/25 00:27:38;;;;;;;18.38;7.75;;;7.70;99.90;;;;;;5095922;28;20420;-60
2022/04/25 00:30:04;;;;;;;12.95;8.02;;;7.50;99.90;;;;;;5094858;28;20126;-60
2022/04/25 00:32:30;;;;;;;17.20;8.63;;;7.60;99.90;;;;;;5094570;28;20101;-59
2022/04/25 00:34:55;;;;;;;14.05;8.45;;;7.60;99.90;;;;;;5096623;28;20036;-60
2022/04/25 00:37:21;;;;;;;14.70;8.40;;;;;;;;;;5095067;28;20040;-60
2022/04/25 00:39:47;;;;;;;15.68;8.77;;;7.70;99.90;;;;;;5077783;28;20123;-60
2022/04/25 00:42:13;;;;;;;17.83;9.23;;;7.80;99.90;;;;;;5078748;28;20436;-60
2022/04/25 00:44:41;;;;;;;15.98;9.30;;;7.80;99.90;;;;;;5095537;28;20048;-60
2022/04/25 00:47:09;;;;;;;15.60;9.13;;;7.70;99.90;;;;;;5095634;28;20510;-60
2022/04/25 00:49:35;;;;;;;16.38;9.25;;;;;;;;;;5096519;28;20122;-60
2022/04/25 00:52:01;;;;;;;15.82;9.50;;;8.00;99.90;;;;;;5078671;28;20047;-59
2022/04/25 00:54:26;;;;;;;17.67;10.02;;;7.90;99.90;;;;;;5095047;28;20048;-60
2022/04/25 00:56:52;;;;;;;14.07;9.07;;;8.00;99.90;;;;;;5094872;28;20058;-60
2022/04/25 00:59:19;;;;;;;13.75;9.52;;;8.00;99.90;;;;;;5095458;28;20119;-60
2022/04/25 01:01:47;;;;;;;15.43;9.68;;;7.80;99.90;;;;;;5095592;28;20061;-60
2022/04/25 01:04:13;;;;;;;20.25;10.05;;;8.10;99.90;;;;;;5095489;28;20101;-60
2022/04/25 01:06:39;;;;;;;16.27;9.77;;;7.80;99.90;;;;;;5097272;28;20036;-60
2022/04/25 01:09:05;;;;;;;16.35;9.90;;;8.10;99.90;;;;;;5078666;28;20067;-60
2022/04/25 01:11:31;;;;;;;18.17;10.68;;;8.00;99.90;;;;;;5096713;28;20040;-60
2022/04/25 01:13:57;;;;;;;16.58;10.45;;;8.10;99.90;;;;;;5097474;28;20141;-60
2022/04/25 01:16:23;;;;;;;15.65;10.07;;;;;;;;;;5096515;28;20393;-59
2022/04/25 01:18:48;;;;;;;22.83;11.05;;;8.10;99.90;;;;;;5095676;28;20040;-60
2022/04/25 01:21:18;;;;;;;16.55;10.52;;;8.20;99.90;;;;;;5096578;28;20043;-60
2022/04/25 01:29:14;;;;;;;17.10;10.50;;;8.20;99.90;;;;;;5096386;28;20480;-60
2022/04/25 01:31:40;;;;;;;17.73;10.68;;;8.30;99.90;;;;;;5096092;28;20181;-60
2022/04/25 01:34:05;;;;;;;19.50;11.40;;;8.40;99.90;;;;;;5095946;28;20093;-60
2022/04/25 01:36:31;;;;;;;21.58;11.45;;;8.30;99.90;;;;;;5095617;28;20549;-60
2022/04/25 01:38:56;;;;;;;17.25;11.90;;;8.20;99.90;;;;;;5094535;28;20036;-61
2022/04/25 01:41:22;;;;;;;21.13;11.32;;;8.40;99.90;;;;;;5094996;28;20482;-60
2022/04/25 01:43:47;;;;;;;20.60;11.90;;;8.40;99.90;;;;;;5078064;28;20040;-60
2022/04/25 01:46:13;;;;;;;18.88;11.65;;;8.40;99.90;;;;;;5094382;28;20503;-62
2022/04/25 01:48:39;;;;;;;17.08;11.10;;;8.30;99.90;;;;;;5095964;28;20047;-61
2022/04/25 01:51:05;;;;;;;20.30;12.45;;;8.30;99.90;;;;;;5094223;28;20472;-62
2022/04/25 01:53:31;;;;;;;23.13;12.00;;;;;;;;;;5095116;28;20486;-62
2022/04/25 01:55:56;;;;;;;19.20;12.95;;;8.30;99.90;;;;;;5095591;28;20472;-62
2022/04/25 01:58:24;;;;;;;16.25;11.52;;;;;;;;;;5077169;28;20050;-61
2022/04/25 02:00:50;;;;;;;17.80;11.98;;;;;;;;;;5095262;28;20036;-62
2022/04/25 02:03:15;;;;;;;17.23;11.55;;;8.30;99.90;;;;;;5095301;28;20036;-61
2022/04/25 02:05:41;;;;;;;20.20;12.48;;;8.10;99.90;;;;;;5094825;28;20040;-62
2022/04/25 02:08:07;;;;;;;19.23;12.48;;;8.10;99.90;;;;;;5095958;28;20462;-61
2022/04/25 02:10:32;;;;;;;22.80;14.00;;;8.20;99.90;;;;;;5094679;28;20124;-62
2022/04/25 02:12:58;;;;;;;22.23;12.25;;;8.30;99.90;;;;;;5093821;28;20036;-62
2022/04/25 02:15:24;;;;;;;18.42;11.65;;;8.20;99.90;;;;;;5094398;28;20102;-61
2022/04/25 02:17:50;;;;;;;17.52;11.45;;;8.30;99.90;;;;;;5095857;28;20473;-61
2022/04/25 02:20:16;;;;;;;19.30;11.55;;;8.30;99.90;;;;;;5095054;28;20043;-61
2022/04/25 02:22:43;;;;;;;19.05;12.05;;;;;;;;;;5095708;28;20043;-62
2022/04/25 02:25:09;;;;;;;18.73;12.13;;;8.20;99.90;;;;;;5094943;28;20101;-62
2022/04/25 02:27:35;;;;;;;19.38;11.77;;;8.40;99.90;;;;;;5096559;28;20043;-62
2022/04/25 02:30:01;;;;;;;18.55;12.13;;;8.20;99.90;;;;;;5099892;28;20394;-62
2022/04/25 02:32:28;;;;;;;20.05;12.38;;;8.10;99.90;;;;;;5100044;28;20039;-61
2022/04/25 02:34:54;;;;;;;19.02;11.70;;;8.20;99.90;;;;;;5081187;28;20040;-61
2022/04/25 02:37:23;;;;;;;16.55;11.73;;;8.20;99.90;;;;;;5098536;28;20036;-62
2022/04/25 02:39:50;;;;;;;18.17;11.27;;;8.00;99.90;;;;;;5098331;28;20397;-61
2022/04/25 02:42:15;;;;;;;16.08;10.23;;;8.00;99.90;;;;;;5081091;28;20040;-61
2022/04/25 02:44:41;;;;;;;17.80;12.30;;;8.00;99.90;;;;;;5094432;28;20178;-61
2022/04/25 02:47:06;;;;;;;17.80;10.73;;;8.10;99.90;;;;;;5077746;28;20165;-61
2022/04/25 02:49:32;;;;;;;15.77;10.82;;;7.90;99.90;;;;;;5077112;28;20041;-61
2022/04/25 02:51:57;;;;;;;15.40;10.68;;;8.00;99.90;;;;;;5086382;28;20040;-61
2022/04/25 02:54:23;;;;;;;17.25;10.13;;;7.90;99.90;;;;;;5099276;28;20113;-61
2022/04/25 02:56:49;;;;;;;18.95;10.43;;;7.70;99.90;;;;;;5098128;28;20127;-61
2022/04/25 02:59:15;;;;;;;17.27;10.52;;;;;;;;;;5097525;28;20048;-62
2022/04/25 03:01:41;;;;;;;19.50;10.85;;;7.70;99.90;;;;;;5097695;28;20115;-62
2022/04/25 03:04:07;;;;;;;15.65;10.55;;;7.50;99.90;;;;;;5098326;28;20044;-61
2022/04/25 03:06:33;;;;;;;15.75;10.80;;;7.40;99.90;;;;;;5099870;28;20036;-61
2022/04/25 03:08:59;;;;;;;14.80;9.48;;;7.40;99.90;;;;;;5098907;28;20043;-61
2022/04/25 03:11:25;;;;;;;14.57;10.23;;;7.20;99.90;;;;;;5080577;28;20063;-61
2022/04/25 03:13:52;;;;;;;14.25;10.32;;;7.30;99.90;;;;;;5098570;28;20087;-61
2022/04/25 03:16:19;;;;;;;19.45;10.55;;;7.10;99.90;;;;;;5098318;28;20127;-61
2022/04/25 03:18:45;;;;;;;14.07;9.55;;;7.20;99.90;;;;;;5098798;28;20036;-60
2022/04/25 03:21:10;;;;;;;16.17;10.23;;;7.10;99.90;;;;;;5099312;28;20078;-60
2022/04/25 03:23:36;;;;;;;15.80;11.20;;;7.10;99.90;;;;;;5096819;28;20044;-59
2022/04/25 03:26:02;;;;;;;16.25;10.65;;;7.00;99.90;;;;;;5096842;28;20558;-60
2022/04/25 03:28:28;;;;;;;16.65;10.23;;;6.90;99.90;;;;;;5099612;28;20066;-59
2022/04/25 03:30:53;;;;;;;20.92;10.85;;;7.00;99.90;;;;;;5080425;28;20044;-60
2022/04/25 03:33:19;;;;;;;19.17;10.45;;;7.00;99.90;;;;;;5096212;28;20079;-58
2022/04/25 03:35:48;;;;;;;20.50;10.18;;;7.00;99.90;;;;;;5098301;28;20082;-59
2022/04/25 03:38:17;;;;;;;18.73;10.82;;;7.10;99.90;;;;;;5096270;28;20481;-59
2022/04/25 03:40:43;;;;;;;18.60;11.40;;;7.20;99.90;;;;;;5096256;28;20040;-59
2022/04/25 03:43:09;;;;;;;21.80;11.80;;;7.20;99.90;;;;;;5098257;28;20036;-59
2022/04/25 03:45:35;;;;;;;16.73;11.27;;;;;;;;;;5096644;28;20047;-59
2022/04/25 03:48:01;;;;;;;17.75;10.48;;;7.10;99.90;;;;;;5097583;28;20044;-59
2022/04/25 03:50:27;;;;;;;19.73;12.45;;;7.30;99.90;;;;;;5096782;28;20059;-59
2022/04/25 03:52:53;;;;;;;17.05;10.73;;;7.20;99.90;;;;;;5096134;28;20109;-59
2022/04/25 03:58:04;;;;;;;17.67;10.95;;;7.20;99.90;;;;;;5097587;28;20079;-59
2022/04/25 04:00:31;;;;;;;21.48;11.32;;;7.30;99.90;;;;;;5097926;28;20036;-60
2022/04/25 04:02:58;;;;;;;19.02;11.20;;;7.30;99.90;;;;;;5095912;28;20040;-60
2022/04/25 04:05:24;;;;;;;18.75;12.10;;;7.30;99.90;;;;;;5079597;28;20046;-59
2022/04/25 04:07:50;;;;;;;20.58;11.32;;;7.30;99.90;;;;;;5095343;28;20126;-59
2022/04/25 04:10:17;;;;;;;18.13;11.43;;;;;;;;;;5096409;28;20044;-60
2022/04/25 04:12:46;;;;;;;17.30;11.57;;;7.20;99.90;;;;;;5096606;28;20079;-59
2022/04/25 04:15:13;;;;;;;21.42;11.73;;;7.50;99.90;;;;;;5095368;28;20044;-60
2022/04/25 04:17:39;;;;;;;19.83;11.43;;;;;;;;;;5095673;28;20103;-60
2022/04/25 04:20:06;;;;;;;18.88;11.52;;;7.60;99.90;;;;;;5096926;28;20049;-60
2022/04/25 04:22:32;;;;;;;23.35;12.75;;;7.20;99.90;;;;;;5096624;28;20115;-59
2022/04/25 04:25:04;;;;;;;19.40;11.50;;;7.40;99.90;;;;;;5097873;28;20031;-60
2022/04/25 04:27:32;;;;;;;18.77;12.35;;;7.40;99.90;;;;;;5098480;28;20101;-59
2022/04/25 04:29:59;;;;;;;18.00;11.25;;;7.50;99.90;;;;;;5096833;28;20036;-59
2022/04/25 04:32:30;;;;;;;18.45;11.07;;;7.60;99.90;;;;;;5097479;28;20044;-60
2022/04/25 04:34:59;;;;;;;17.95;11.20;;;7.60;99.90;;;;;;5078804;28;20082;-60
2022/04/25 04:37:26;;;;;;;15.30;11.48;;;7.60;99.90;;;;;;5093696;28;20371;-61
2022/04/25 04:42:37;;;;;;;22.58;12.13;;;7.50;99.90;;;;;;5094046;28;20119;-61
2022/04/25 04:45:02;;;;;;;18.80;11.82;;;7.50;99.90;;;;;;5094376;28;20071;-61
2022/04/25 04:47:31;;;;;;;19.25;11.38;;;7.50;99.90;;;;;;5094500;28;20036;-61
2022/04/25 04:49:56;;;;;;;19.77;11.55;;;7.70;99.90;;;;;;5094412;28;20036;-61
2022/04/25 04:52:22;;;;;;;21.23;12.82;;;7.70;99.90;;;;;;5094388;28;20059;-61
2022/04/25 04:54:47;;;;;;;19.35;11.13;;;7.70;99.90;;;;;;5094024;28;20504;-61
2022/04/25 04:57:13;;;;;;;17.20;11.25;;;7.60;99.90;;;;;;5094226;28;20040;-61
2022/04/25 04:59:38;;;;;;;18.40;11.30;;;7.70;99.90;;;;;;5094446;28;20036;-61
2022/04/25 05:02:05;;;;;;;19.00;10.77;;;7.70;99.90;;;;;;5094012;28;20093;-61
2022/04/25 05:04:31;;;;;;;19.48;12.10;;;7.70;99.90;;;;;;5093072;28;20375;-60
2022/04/25 05:06:56;;;;;;;17.48;11.25;;;7.90;99.90;;;;;;5092830;28;20047;-61
2022/04/25 05:09:22;;;;;;;16.80;11.82;;;7.80;99.90;;;;;;5092901;28;20047;-61
2022/04/25 05:11:47;;;;;;;17.77;12.32;;;7.80;99.90;;;;;;5092941;28;20048;-61
2022/04/25 05:14:14;;;;;;;24.30;12.32;;;7.80;99.90;;;;;;5094160;28;20040;-61
2022/04/25 05:16:40;;;;;;;16.88;10.93;;;8.10;99.90;;;;;;5079344;28;20497;-61
2022/04/25 05:19:05;;;;;;;18.15;12.00;;;7.90;99.90;;;;;;5073577;28;20041;-61
2022/04/25 05:21:31;;;;;;;17.27;11.27;;;7.80;99.90;;;;;;5078303;28;20496;-60
2022/04/25 05:23:56;;;;;;;18.95;11.73;;;7.80;99.90;;;;;;5093166;28;20039;-61
2022/04/25 05:26:23;;;;;;;17.83;10.80;;;7.90;99.90;;;;;;5093685;28;20036;-60
2022/04/25 05:28:49;;;;;;;21.20;11.60;;;7.90;99.90;;;;;;5092333;28;20044;-60
2022/04/25 05:31:14;;;;;;;17.30;11.27;;;7.70;99.90;;;;;;5089046;28;20085;-59
2022/04/25 05:33:40;;;;;;;16.83;10.73;;;7.90;99.90;;;;;;5091975;28;20123;-60
2022/04/25 05:36:05;;;;;;;16.27;10.13;;;7.90;99.90;;;;;;5093627;28;20044;-61
2022/04/25 05:38:31;;;;;;;19.80;10.85;;;7.90;99.90;;;;;;5088803;28;20123;-60
2022/04/25 05:40:57;;;;;;;12.45;10.57;;;7.90;99.90;;;;;;5092287;28;20500;-62
2022/04/25 05:43:24;;;;;;;16.00;10.65;;;7.80;99.90;;;;;;5092354;28;20054;-61
2022/04/25 05:45:50;;;;;;;16.65;11.13;;;7.80;99.90;;;;;;5092006;28;20044;-62
2022/04/25 05:53:44;;;;;;;18.70;10.45;;;;;;;;;;5081383;28;20127;-62
2022/04/25 05:56:10;;;;;;;16.63;10.20;;;7.80;99.90;;;;;;5090057;28;20132;-62
2022/04/25 05:58:35;;;;;;;18.40;10.45;;;7.90;99.90;;;;;;5090734;28;20079;-62
2022/04/25 06:01:01;;;;;;;16.13;10.02;;;8.00;99.90;;;;;;5091895;28;20036;-62
2022/04/25 06:03:26;;;;;;;15.23;10.15;;;7.90;99.90;;;;;;5091664;28;20089;-63
2022/04/25 06:05:55;;;;;;;14.65;9.70;;;7.90;99.90;;;;;;5089955;28;20131;-61
2022/04/25 06:08:23;;;;;;;16.42;10.32;;;7.90;99.90;;;;;;5089955;28;20466;-62
2022/04/25 06:10:48;;;;;;;15.07;8.55;;;7.80;99.90;;;;;;5091778;28;20394;-63
2022/04/25 06:13:14;;;;;;;12.40;8.75;;;7.90;99.90;;;;;;5088145;28;20056;-63
2022/04/25 06:15:39;;;;;;;11.95;8.73;;;8.10;99.90;;;;;;5070394;28;20051;-63
2022/04/25 06:18:05;;;;;;;11.77;8.40;;;7.80;99.90;;;;;;5088644;28;20047;-63
2022/04/25 06:20:31;;;;;;;15.73;9.30;;;7.80;99.90;;;;;;5091975;28;20115;-63
2022/04/25 06:22:58;;;;;;;13.60;8.30;;;7.90;99.90;;;;;;5091460;28;20062;-63
2022/04/25 06:25:26;;;;;;;12.63;8.70;;;7.80;99.90;;;;;;5085911;28;20044;-63
2022/04/25 06:27:52;;;;;;;13.57;8.93;;;;;;;;;;5089013;28;20044;-63
2022/04/25 06:30:23;;;;;;;12.25;8.63;;;;;;;;;;5081896;28;20394;-65
2022/04/25 06:32:49;;;;;;;14.70;9.35;;;7.90;99.90;;;;;;5077315;28;20052;-65
2022/04/25 06:35:14;;;;;;;14.95;9.57;;;7.80;99.90;;;;;;5091080;28;20074;-65
2022/04/25 06:37:40;;;;;;;13.48;9.25;;;7.70;99.90;;;;;;5091519;28;20044;-65
2022/04/25 06:40:07;;;;;;;15.27;10.00;;;;;;;;;;5091448;28;20036;-65
2022/04/25 06:42:33;;;;;;;14.65;10.02;;;;;;;;;;5091802;28;20040;-64
2022/04/25 06:44:59;;;;;;;12.05;8.95;;;;;;;;;;5082978;28;20128;-65
2022/04/25 06:47:25;;;;;;;15.18;9.85;;;8.10;99.90;;;;;;5078303;28;20401;-65
2022/04/25 06:49:54;;;;;;;17.80;9.90;;;8.30;99.90;;;;;;5083942;28;20036;-65
2022/04/25 06:52:20;;;;;;;16.63;9.13;;;8.10;99.90;;;;;;5084348;28;20509;-65
2022/04/25 06:54:46;;;;;;;14.13;8.82;;;8.20;99.90;;;;;;5067576;28;20079;-65
2022/04/25 06:57:12;;;;;;;15.27;10.05;;;;;;;;;;5078052;28;20155;-65
2022/04/25 06:59:38;;;;;;;14.23;9.13;;;;;;;;;;5083499;28;20032;-65
2022/04/25 07:02:05;;;;;;;15.93;9.82;;;8.30;99.90;;;;;;5083979;28;20083;-64
2022/04/25 07:04:30;;;;;;;13.23;9.35;;;8.40;99.90;;;;;;5085146;28;20490;-64
2022/04/25 07:06:56;;;;;;;15.15;10.07;;;8.40;99.90;;;;;;5077892;28;20044;-65
2022/04/25 07:09:21;;;;;;;15.25;8.73;;;8.30;99.90;;;;;;5079092;28;20067;-64
2022/04/25 07:11:48;;;;;;;11.80;8.38;;;;;;;;;;5082354;28;20833;-64
2022/04/25 07:14:14;;;;;;;13.10;8.40;;;;;;;;;;5070470;28;20059;-65
2022/04/25 07:16:41;;;;;;;11.35;8.57;;;;;;;;;;5078252;28;20086;-64
2022/04/25 07:19:07;;;;;;;17.55;10.57;;;;;;;;;;5074786;28;20044;-64
2022/04/25 07:29:48;;;;;;;17.37;9.13;;;;;;;;;;5075704;28;20075;-64
2022/04/25 07:32:18;;;;;;;14.02;8.82;;;;;;;;;;5075282;28;20056;-62
2022/04/25 07:34:46;;;;;;;14.75;8.68;;;;;;;;;;5079497;28;20456;-64
2022/04/25 07:37:12;;;;;;;10.65;8.18;;;;;;;;;;5080876;28;20091;-63
2022/04/25 07:39:38;;;;;;;16.80;8.95;;;;;;;;;;5084788;28;20119;-64
2022/04/25 07:42:04;;;;;;;14.00;8.27;;;;;;;;;;5085881;28;20044;-63
2022/04/25 07:44:30;;;;;;;15.77;9.85;;;;;;;;;;5086323;28;20486;-64
2022/04/25 07:46:56;;;;;;;10.82;8.00;;;;;;;;;;5084715;28;20047;-64
2022/04/25 07:49:22;;;;;;;16.55;9.07;;;;;;;;;;5085386;28;20047;-63
2022/04/25 07:51:48;;;;;;;16.23;8.63;;;;;;;;;;5083549;28;20378;-63
2022/04/25 07:54:15;;;;;;;13.57;9.15;;;8.30;99.90;;;;;;5067956;28;20474;-64
2022/04/25 07:56:42;;;;;;;14.32;9.38;;;;;;;;;;5072136;28;20411;-64
2022/04/25 07:59:09;;;;;;;18.13;9.23;;;;;;;;;;5084184;28;20075;-63
2022/04/25 08:01:35;;;;;;;12.88;8.93;;;;;;;;;;5074112;28;20047;-63
2022/04/25 08:04:01;;;;;;;18.20;9.10;;;;;;;;;;5064999;28;20048;-62
2022/04/25 08:06:27;;;;;;;14.45;9.45;;;8.30;99.90;;;;;;5086207;28;20054;-62
2022/04/25 08:08:54;;;;;;;13.70;9.13;;;;;;;;;;5086464;28;20048;-62
2022/04/25 08:11:20;;;;;;;13.60;8.95;;;;;;;;;;5085078;28;20160;-62
2022/04/25 08:19:32;;;;;;;16.42;8.88;;;8.30;99.90;;;;;;5075128;28;20698;-64
2022/04/25 08:22:09;;;;;;;16.40;10.00;;;;;;;;;;5080841;28;20564;-64
2022/04/25 08:24:54;;;;;;;12.55;9.70;;;;;;;;;;5078416;28;20046;-64
2022/04/25 08:27:21;;;;;;;12.90;9.75;;;;;;;;;;5072776;28;20036;-65
2022/04/25 08:29:52;;;;;;;19.25;10.68;;;;;;;;;;5082745;28;20040;-65
2022/04/25 08:32:19;;;;;;;16.52;10.35;;;;;;;;;;5084674;28;20051;-65
2022/04/25 08:34:45;;;;;;;15.00;10.43;;;8.50;99.90;;;;;;5065935;28;20055;-64
2022/04/25 08:37:11;;;;;;;18.58;10.75;;;;;;;;;;5074901;28;20032;-63
2022/04/25 08:39:37;;;;;;;14.25;10.05;;;;;;;;;;5081919;28;20462;-63
2022/04/25 08:42:07;;;;;;;17.65;10.15;;;;;;;;;;5084833;28;20097;-65
2022/04/25 08:44:33;;;;;;;16.10;10.18;;;;;;;;;;5080131;28;20478;-64
2022/04/25 08:46:59;;;;;;;13.32;9.45;;;;;;;;;;5076233;28;20043;-62
2022/04/25 08:49:26;;;;;;;13.32;9.60;;;;;;;;;;5079858;28;20093;-64
2022/04/25 08:51:58;;;;;;;15.70;9.35;;;;;;;;;;5083523;28;20036;-63
2022/04/25 08:54:31;;;;;;;16.52;9.68;;;;;;;;;;5082452;28;20075;-63
2022/04/25 08:56:57;;;;;;;17.42;8.93;;;;;;;;;;5075607;28;20055;-65
2022/04/25 08:59:24;;;;;;;16.27;10.00;;;8.40;99.90;;;;;;5088360;28;20040;-65
2022/04/25 09:01:50;;;;;;;16.90;9.30;;;;;;;;;;5083986;28;20090;-64
2022/04/25 09:04:16;;;;;;;16.90;9.10;;;;;;;;;;5086320;28;20044;-64
2022/04/25 09:06:42;;;;;;;19.05;11.05;;;;;;;;;;5074554;28;20057;-65
2022/04/25 09:09:08;;;;;;;14.85;9.77;;;;;;;;;;5075325;28;20445;-65
2022/04/25 09:14:18;;;;;;;16.50;10.77;;;;;;;;;;5073439;28;20534;-65
2022/04/25 09:16:45;;;;;;;19.90;9.93;;;;;;;;;;5073811;28;20124;-63
2022/04/25 09:19:11;;;;;;;17.70;11.15;;;8.40;99.90;;;;;;5066301;28;20174;-66
2022/04/25 09:21:41;;;;;;;17.17;11.10;;;8.40;99.90;;;;;;5073702;28;20503;-65
2022/04/25 09:24:23;;;;;;;17.85;11.18;;;;;;;;;;5081790;28;20044;-64
2022/04/25 09:26:53;;;;;;;22.50;12.45;;;;;;;;;;5079196;28;20565;-65
2022/04/25 09:29:26;;;;;;;19.52;11.40;;;;;;;;;;5070312;28;20047;-65
2022/04/25 09:31:53;;;;;;;25.63;12.48;;;;;;;;;;5073886;28;20040;-65
2022/04/25 09:34:59;;;;;;;19.35;11.35;;;;;;;;;;5075821;28;20036;-65
2022/04/25 09:37:06;;;;;;;15.48;10.82;;;8.50;99.90;;;;;;5076897;28;20056;-64
2022/04/25 09:39:32;;;;;;;22.15;11.35;;;8.50;99.90;;;;;;5077174;28;20047;-63
2022/04/25 09:41:57;;;;;;;22.85;11.20;;;8.60;99.90;;;;;;5079977;28;20040;-63
2022/04/25 09:44:23;;;;;;;15.18;10.35;;;8.40;99.90;;;;;;5074570;28;20044;-63
2022/04/25 09:46:49;;;;;;;20.40;11.38;;;8.40;99.90;;;;;;5075721;28;20073;-63
2022/04/25 09:49:21;;;;;;;14.48;10.55;;;8.20;99.90;;;;;;5080994;28;20486;-63
2022/04/25 09:52:03;;;;;;;18.30;10.48;;;;;;;;;;5092404;28;20040;-64
2022/04/25 09:54:28;;;;;;;16.80;9.48;;;8.60;99.90;;;;;;5107147;28;20055;-62
2022/04/25 09:56:54;;;;;;;16.20;11.00;;;8.60;99.90;;;;;;5091803;28;20409;-62
2022/04/25 09:59:21;;;;;;;15.02;9.55;;;8.60;99.90;;;;;;5081698;28;20040;-64
2022/04/25 10:02:03;;;;;;;16.67;10.15;;;8.80;99.90;;;;;;5087737;28;20054;-64
2022/04/25 10:04:32;;;;;;;14.50;8.77;;;8.90;99.90;;;;;;5090723;28;20032;-63
2022/04/25 10:07:00;;;;;;;19.33;9.70;;;8.50;99.90;;;;;;5071014;28;20053;-63
2022/04/25 10:09:30;;;;;;;15.73;9.00;;;8.60;99.90;;;;;;5079375;28;20051;-62
2022/04/25 10:11:58;;;;;;;13.30;8.52;;;;;;;;;;5074524;28;20044;-62
2022/04/25 10:14:25;;;;;;;12.50;7.95;;;8.40;99.90;;;;;;5086235;28;20047;-62
2022/04/25 10:16:51;;;;;;;13.20;7.88;;;;;;;;;;5091601;28;20429;-63
2022/04/25 10:19:18;;;;;;;11.40;8.18;;;;;;;;;;5091847;28;20036;-62
2022/04/25 10:21:44;;;;;;;14.88;8.15;;;;;;;;;;5083350;28;20037;-62
2022/04/25 10:24:10;;;;;;;11.68;8.00;;;8.40;99.90;;;;;;5076017;28;20376;-63
2022/04/25 10:26:36;;;;;;;12.90;8.73;;;8.50;99.90;;;;;;5073954;28;20102;-63
2022/04/25 10:29:07;;;;;;;17.05;9.00;;;;;;;;;;5085718;28;20036;-63
2022/04/25 10:31:41;;;;;;;12.27;8.45;;;;;;;;;;5076711;28;20040;-62
2022/04/25 10:34:09;;;;;;;11.15;7.43;;;8.50;99.90;;;;;;5087177;28;20464;-62
2022/04/25 10:36:38;;;;;;;12.93;8.70;;;;;;;;;;5089921;28;20502;-62
2022/04/25 10:39:12;;;;;;;10.65;7.78;;;;;;;;;;5069280;28;20051;-62
2022/04/25 10:44:23;;;;;;;10.73;7.80;;;;;;;;;;5077326;28;20048;-63
2022/04/25 10:47:04;;;;;;;12.27;8.70;;;;;;;;;;5083582;28;20040;-62
2022/04/25 10:49:31;;;;;;;14.90;8.73;;;8.50;99.90;;;;;;5086462;28;20040;-62
2022/04/25 10:51:58;;;;;;;15.38;8.20;;;8.80;99.90;;;;;;5080596;28;20044;-62
2022/04/25 10:54:27;;;;;;;12.77;8.27;;;8.50;99.90;;;;;;5077627;28;20076;-63
2022/04/25 10:57:08;;;;;;;15.32;8.38;;;;;;;;;;5083511;28;20047;-61
2022/04/25 10:59:35;;;;;;;15.13;8.50;;;;;;;;;;5081501;28;20865;-62
2022/04/25 11:02:19;;;;;;;13.77;8.85;;;8.70;99.90;;;;;;5085932;28;20096;-62
2022/04/25 11:04:44;;;;;;;8.95;7.65;;;8.70;99.90;;;;;;5083640;28;20445;-62
2022/04/25 11:07:24;;;;;;;16.60;8.95;;;;;;;;;;5080484;28;20097;-62
2022/04/25 11:09:50;;;;;;;13.80;7.97;;;;;;;;;;5073208;28;20475;-63
2022/04/25 11:12:16;;;;;;;17.52;10.50;;;;;;;;;;5066287;28;20127;-62
2022/04/25 11:14:59;;;;;;;14.55;9.27;;;8.60;99.90;;;;;;5067801;28;20136;-63
2022/04/25 11:17:26;;;;;;;14.00;8.57;;;;;;;;;;5075950;28;20043;-61
2022/04/25 11:19:54;;;;;;;15.60;8.45;;;;;;;;;;5070949;28;20040;-63
2022/04/25 11:22:35;;;;;;;13.23;8.45;;;8.80;99.90;;;;;;5079478;28;20032;-63
2022/04/25 11:25:20;;;;;;;15.05;9.18;;;;;;;;;;5082093;28;20393;-62
2022/04/25 11:28:07;;;;;;;13.63;8.57;;;8.70;99.90;;;;;;5073716;28;20040;-62
2022/04/25 11:30:33;;;;;;;14.95;8.65;;;;;;;;;;5076511;28;20112;-63
2022/04/25 11:33:06;;;;;;;16.13;9.55;;;9.00;99.90;;;;;;5083381;28;20668;-63
2022/04/25 11:35:33;;;;;;;16.85;9.50;;;;;;;;;;5084915;28;20048;-63
2022/04/25 11:37:59;;;;;;;15.48;9.55;;;9.10;99.90;;;;;;5088011;28;20043;-64
2022/04/25 11:40:26;;;;;;;13.32;8.95;;;;;;;;;;5088446;28;20036;-63
2022/04/25 11:42:53;;;;;;;12.00;8.10;;;;;;;;;;5087524;28;20409;-64
2022/04/25 11:45:19;;;;;;;14.20;9.55;;;;;;;;;;5071385;28;20039;-63
2022/04/25 11:47:45;;;;;;;16.60;8.93;;;;;;;;;;5078699;28;20059;-64
2022/04/25 11:50:11;;;;;;;12.02;9.18;;;10.00;99.90;;;;;;5081450;28;20102;-62
2022/04/25 11:52:51;;;;;;;15.80;9.10;;;10.10;99.90;;;;;;5072995;28;20075;-65
2022/04/25 11:55:18;;;;;;;17.23;9.55;;;10.20;99.90;;;;;;5077981;28;20048;-64
2022/04/25 11:57:45;;;;;;;11.20;9.20;;;;;;;;;;5074946;28;20036;-63
2022/04/25 12:00:17;;;;;;;14.40;8.70;;;10.50;99.90;;;;;;5077432;28;20575;-64
2022/04/25 12:02:44;;;;;;;15.05;8.77;;;10.70;99.90;;;;;;5072310;28;20032;-63
2022/04/25 12:05:11;;;;;;;15.95;9.13;;;;;;;;;;5084124;28;20448;-63
2022/04/25 12:07:38;;;;;;;12.98;8.15;;;10.90;99.90;;;;;;5080729;28;20051;-63
2022/04/25 12:15:40;;;;;;;10.02;7.90;;;11.50;99.90;;;;;;5076311;28;20379;-62
2022/04/25 12:18:23;;;;;;;10.88;9.15;;;11.70;99.90;;;;;;5070570;28;20039;-62
2022/04/25 12:20:58;;;;;;;11.82;8.70;;;11.80;99.90;;;;;;5082884;28;20040;-62
2022/04/25 12:23:25;;;;;;;;;;;12.00;99.90;;;;;;5090756;28;20158;-63
2022/04/25 12:25:52;;;;;;;16.08;9.02;;;12.10;99.90;;;;;;5088645;28;20409;-63
2022/04/25 12:28:20;;;;;;;16.52;8.48;;;12.20;99.90;;;;;;5076577;28;20048;-63
2022/04/25 12:30:57;;;;;;;10.73;7.20;;;12.20;99.90;;;;;;5083675;28;20101;-63
2022/04/25 12:33:36;;;;;;;10.65;6.97;;;12.30;99.90;;;;;;5076859;28;20367;-63
2022/04/25 12:36:27;;;;;;;10.63;7.13;;;12.30;99.90;;;;;;5087331;28;20401;-64
2022/04/25 12:38:59;;;;;;;12.32;7.55;;;12.20;99.90;;;;;;5072224;28;20119;-63
2022/04/25 12:41:39;;;;;;;12.38;8.07;;;12.20;99.90;;;;;;5075897;28;20095;-63
2022/04/25 12:44:10;;;;;;;9.57;7.32;;;12.40;99.90;;;;;;5075124;28;20374;-63
2022/04/25 12:46:36;;;;;;;13.32;8.30;;;;;;;;;;5077069;28;20040;-63
2022/04/25 12:49:05;;;;;;;11.40;8.30;;;12.30;99.90;;;;;;5075367;28;20044;-65
2022/04/25 12:51:39;;;;;;;12.93;8.20;;;12.30;99.90;;;;;;5084009;28;20075;-64
2022/04/25 12:54:19;;;;;;;10.18;7.18;;;12.40;99.90;;;;;;5073162;28;20067;-63
2022/04/25 12:56:44;;;;;;;11.02;7.10;;;12.40;99.90;;;;;;5068816;28;20102;-65
2022/04/25 12:59:10;;;;;;;14.23;7.95;;;12.60;99.90;;;;;;5067843;28;20433;-65
2022/04/25 13:01:36;;;;;;;13.48;8.82;;;;;;;;;;5068161;28;20040;-63
2022/04/25 13:04:04;;;;;;;9.85;6.97;;;12.90;99.90;;;;;;5083802;28;20196;-64
2022/04/25 13:06:30;;;;;;;14.52;8.32;;;12.80;99.90;;;;;;5076296;28;20457;-64
2022/04/25 13:08:56;;;;;;;13.15;8.10;;;;;;;;;;5081342;28;20277;-62
2022/04/25 13:11:22;;;;;;;9.48;7.03;;;12.80;99.90;;;;;;5084695;28;20043;-63
2022/04/25 13:13:50;;;;;;;10.80;6.53;;;;;;;;;;5072709;28;20393;-63
2022/04/25 13:16:16;;;;;;;9.43;6.70;;;12.60;99.90;;;;;;5077258;28;20129;-63
2022/04/25 13:18:43;;;;;;;10.20;7.60;;;;;;;;;;5083183;28;20029;-62
2022/04/25 13:21:12;;;;;;;12.65;6.45;;;;;;;;;;5083759;28;20048;-64
2022/04/25 13:23:38;;;;;;;9.93;7.30;;;12.40;99.90;;;;;;5087788;28;20047;-64
2022/04/25 13:26:04;;;;;;;8.80;7.07;;;;;;;;;;5084887;28;20043;-62
2022/04/25 13:28:29;;;;;;;11.98;7.25;;;12.50;99.90;;;;;;5084061;28;20078;-64
2022/04/25 13:30:55;;;;;;;10.32;7.13;;;12.50;99.90;;;;;;5088768;28;20490;-63
2022/04/25 13:33:20;;;;;;;10.35;7.47;;;12.60;99.90;;;;;;5087915;28;20047;-64
2022/04/25 13:35:46;;;;;;;11.77;7.30;;;12.60;99.90;;;;;;5086097;28;20353;-63
2022/04/25 13:38:13;;;;;;;10.20;7.45;;;;;;;;;;5081567;28;20072;-63
2022/04/25 13:40:39;;;;;;;9.18;7.00;;;;;;;;;;5072957;28;20044;-63
2022/04/25 13:43:07;;;;;;;11.57;7.13;;;12.70;99.90;;;;;;5069066;28;20044;-65
2022/04/25 13:45:33;;;;;;;10.70;7.40;;;;;;;;;;5070199;28;20093;-63
2022/04/25 13:47:59;;;;;;;14.75;9.30;;;12.60;99.90;;;;;;5077475;28;20351;-64
2022/04/25 13:50:26;;;;;;;10.02;6.95;;;12.50;99.90;;;;;;5079035;28;20044;-63
2022/04/25 13:52:52;;;;;;;11.63;7.95;;;;;;;;;;5082499;28;20059;-65
2022/04/25 13:55:18;;;;;;;11.98;7.75;;;;;;;;;;5078399;28;20409;-64